sensor_id;sensor_type;location;lat;lon;timestamp;pressure;altitude;pressure_sealevel;temperature;humidity
69173;BME280;56280;49.662;8.408;2022-12-20T00:01:51;101232.00;;;2.79;88.13
69173;BME280;56280;49.662;8.408;2022-12-20T00:04:16;101212.19;;;2.70;88.18
69173;BME280;56280;49.662;8.408;2022-12-20T00:06:41;101216.94;;;2.84;87.79
69173;BME280;56280;49.662;8.408;2022-12-20T00:09:08;101192.03;;;2.72;87.94
69173;BME280;56280;49.662;8.408;2022-12-20T00:11:35;101250.50;;;3.00;87.64
69173;BME280;56280;49.662;8.408;2022-12-20T00:14:02;101198.69;;;2.81;87.10
69173;BME280;56280;49.662;8.408;2022-12-20T00:16:28;101224.03;;;2.82;86.85
69173;BME280;56280;49.662;8.408;2022-12-20T00:18:55;101239.88;;;2.79;86.76
69173;BME280;56280;49.662;8.408;2022-12-20T00:21:22;101195.38;;;2.52;87.61
69173;BME280;56280;49.662;8.408;2022-12-20T00:23:47;101228.94;;;2.91;87.89
69173;BME280;56280;49.662;8.408;2022-12-20T00:26:15;101214.03;;;2.92;88.02
69173;BME280;56280;49.662;8.408;2022-12-20T00:28:41;101213.66;;;3.03;87.16
69173;BME280;56280;49.662;8.408;2022-12-20T00:31:08;101214.44;;;3.05;88.09
69173;BME280;56280;49.662;8.408;2022-12-20T00:33:35;101221.31;;;3.07;87.47
69173;BME280;56280;49.662;8.408;2022-12-20T00:36:02;101214.44;;;3.05;87.51
69173;BME280;56280;49.662;8.408;2022-12-20T00:38:28;101197.19;;;2.98;87.08
69173;BME280;56280;49.662;8.408;2022-12-20T00:41:08;101221.28;;;2.85;87.33
69173;BME280;56280;49.662;8.408;2022-12-20T00:43:35;101229.19;;;2.60;89.18
69173;BME280;56280;49.662;8.408;2022-12-20T00:46:01;101209.63;;;2.45;89.21
69173;BME280;56280;49.662;8.408;2022-12-20T00:48:27;101194.81;;;2.68;89.24
69173;BME280;56280;49.662;8.408;2022-12-20T00:50:58;101215.88;;;2.90;88.60
69173;BME280;56280;49.662;8.408;2022-12-20T00:53:24;101221.69;;;2.98;88.01
69173;BME280;56280;49.662;8.408;2022-12-20T00:55:49;101203.50;;;2.94;87.86
69173;BME280;56280;49.662;8.408;2022-12-20T00:58:14;101214.00;;;2.94;87.46
69173;BME280;56280;49.662;8.408;2022-12-20T01:00:40;101185.28;;;2.89;86.85
69173;BME280;56280;49.662;8.408;2022-12-20T01:03:05;101210.22;;;3.01;86.64
69173;BME280;56280;49.662;8.408;2022-12-20T01:05:31;101197.41;;;2.93;87.00
69173;BME280;56280;49.662;8.408;2022-12-20T01:07:57;101198.81;;;3.02;87.78
69173;BME280;56280;49.662;8.408;2022-12-20T01:10:22;101209.88;;;3.10;87.73
69173;BME280;56280;49.662;8.408;2022-12-20T01:12:48;101198.81;;;3.02;87.47
69173;BME280;56280;49.662;8.408;2022-12-20T01:15:13;101205.78;;;3.03;87.67
69173;BME280;56280;49.662;8.408;2022-12-20T01:17:39;101221.16;;;3.12;87.67
69173;BME280;56280;49.662;8.408;2022-12-20T01:20:05;101217.28;;;3.22;87.47
69173;BME280;56280;49.662;8.408;2022-12-20T01:22:31;101197.34;;;3.17;87.44
69173;BME280;56280;49.662;8.408;2022-12-20T01:24:56;101204.09;;;3.24;87.40
69173;BME280;56280;49.662;8.408;2022-12-20T01:27:22;101199.69;;;3.24;87.52
69173;BME280;56280;49.662;8.408;2022-12-20T01:29:48;101206.34;;;3.33;86.86
69173;BME280;56280;49.662;8.408;2022-12-20T01:32:13;101204.69;;;3.31;86.96
69173;BME280;56280;49.662;8.408;2022-12-20T01:34:38;101207.06;;;3.15;87.51
69173;BME280;56280;49.662;8.408;2022-12-20T01:37:04;101172.25;;;3.09;87.83
69173;BME280;56280;49.662;8.408;2022-12-20T01:39:29;101105.44;;;2.72;87.61
69173;BME280;56280;49.662;8.408;2022-12-20T01:41:54;101186.56;;;3.24;87.55
69173;BME280;56280;49.662;8.408;2022-12-20T01:46:47;101183.38;;;3.38;86.94
69173;BME280;56280;49.662;8.408;2022-12-20T01:52:03;101153.50;;;3.19;86.90
69173;BME280;56280;49.662;8.408;2022-12-20T01:54:34;101160.84;;;3.33;86.54
69173;BME280;56280;49.662;8.408;2022-12-20T01:57:07;101170.91;;;3.43;86.77
69173;BME280;56280;49.662;8.408;2022-12-20T01:59:35;101151.97;;;3.13;86.54
69173;BME280;56280;49.662;8.408;2022-12-20T02:02:04;101176.94;;;3.23;87.31
69173;BME280;56280;49.662;8.408;2022-12-20T02:04:31;101152.22;;;3.29;87.49
69173;BME280;56280;49.662;8.408;2022-12-20T02:06:57;101167.19;;;3.49;86.96
69173;BME280;56280;49.662;8.408;2022-12-20T02:09:23;101149.84;;;3.45;87.08
69173;BME280;56280;49.662;8.408;2022-12-20T02:15:01;101164.63;;;3.25;86.54
69173;BME280;56280;49.662;8.408;2022-12-20T02:26:27;101137.25;;;3.09;87.24
69173;BME280;56280;49.662;8.408;2022-12-20T02:34:40;101119.38;;;3.19;87.02
69173;BME280;56280;49.662;8.408;2022-12-20T02:37:06;101088.16;;;2.67;86.98
69173;BME280;56280;49.662;8.408;2022-12-20T02:39:33;101086.59;;;2.39;88.14
69173;BME280;56280;49.662;8.408;2022-12-20T02:42:13;101108.13;;;2.71;89.12
69173;BME280;56280;49.662;8.408;2022-12-20T02:44:49;101112.03;;;2.83;88.28
69173;BME280;56280;49.662;8.408;2022-12-20T02:50:34;101097.47;;;2.76;88.75
69173;BME280;56280;49.662;8.408;2022-12-20T02:53:01;101077.38;;;2.74;88.31
69173;BME280;56280;49.662;8.408;2022-12-20T02:58:10;101091.97;;;3.04;87.49
69173;BME280;56280;49.662;8.408;2022-12-20T03:00:42;101118.47;;;3.20;87.10
69173;BME280;56280;49.662;8.408;2022-12-20T03:03:11;101108.06;;;3.17;87.60
69173;BME280;56280;49.662;8.408;2022-12-20T03:05:52;101089.63;;;3.18;87.15
69173;BME280;56280;49.662;8.408;2022-12-20T03:08:18;101093.97;;;3.19;87.47
69173;BME280;56280;49.662;8.408;2022-12-20T03:10:44;101090.41;;;3.20;87.77
69173;BME280;56280;49.662;8.408;2022-12-20T03:13:10;101055.09;;;3.07;87.59
69173;BME280;56280;49.662;8.408;2022-12-20T03:15:35;101090.84;;;3.32;87.61
69173;BME280;56280;49.662;8.408;2022-12-20T03:18:01;101096.84;;;3.35;87.98
69173;BME280;56280;49.662;8.408;2022-12-20T03:20:27;101089.50;;;3.21;88.28
69173;BME280;56280;49.662;8.408;2022-12-20T03:22:52;101070.94;;;2.82;90.00
69173;BME280;56280;49.662;8.408;2022-12-20T03:25:17;101074.22;;;2.88;91.29
69173;BME280;56280;49.662;8.408;2022-12-20T03:27:43;101082.09;;;2.88;91.57
69173;BME280;56280;49.662;8.408;2022-12-20T03:30:09;101062.19;;;3.05;91.68
69173;BME280;56280;49.662;8.408;2022-12-20T03:32:34;101079.44;;;3.10;91.61
69173;BME280;56280;49.662;8.408;2022-12-20T03:35:00;101041.25;;;2.81;91.92
69173;BME280;56280;49.662;8.408;2022-12-20T03:37:25;101085.69;;;3.08;92.59
69173;BME280;56280;49.662;8.408;2022-12-20T03:39:51;101059.75;;;3.00;92.66
69173;BME280;56280;49.662;8.408;2022-12-20T03:42:16;101018.28;;;2.86;92.14
69173;BME280;56280;49.662;8.408;2022-12-20T03:44:41;101066.00;;;3.18;92.14
69173;BME280;56280;49.662;8.408;2022-12-20T03:47:07;101094.41;;;3.31;91.79
69173;BME280;56280;49.662;8.408;2022-12-20T03:49:32;101034.09;;;3.07;92.47
69173;BME280;56280;49.662;8.408;2022-12-20T03:51:57;101069.84;;;3.52;91.40
69173;BME280;56280;49.662;8.408;2022-12-20T03:54:23;101059.75;;;3.63;90.39
69173;BME280;56280;49.662;8.408;2022-12-20T03:56:48;101062.09;;;3.70;89.85
69173;BME280;56280;49.662;8.408;2022-12-20T03:59:13;101078.59;;;3.73;89.05
69173;BME280;56280;49.662;8.408;2022-12-20T04:01:38;101079.78;;;3.66;89.77
69173;BME280;56280;49.662;8.408;2022-12-20T04:04:04;101068.03;;;3.54;90.74
69173;BME280;56280;49.662;8.408;2022-12-20T04:06:29;101062.09;;;3.49;90.45
69173;BME280;56280;49.662;8.408;2022-12-20T04:08:55;101077.84;;;3.49;90.78
69173;BME280;56280;49.662;8.408;2022-12-20T04:11:20;101061.69;;;3.17;91.96
69173;BME280;56280;49.662;8.408;2022-12-20T04:13:48;101090.34;;;3.22;93.95
69173;BME280;56280;49.662;8.408;2022-12-20T04:16:15;101085.97;;;3.22;94.21
69173;BME280;56280;49.662;8.408;2022-12-20T04:18:41;101057.63;;;3.31;93.62
69173;BME280;56280;49.662;8.408;2022-12-20T04:21:07;101074.06;;;3.56;92.78
69173;BME280;56280;49.662;8.408;2022-12-20T04:23:34;101067.69;;;3.41;92.56
69173;BME280;56280;49.662;8.408;2022-12-20T04:26:00;101066.22;;;3.34;93.14
69173;BME280;56280;49.662;8.408;2022-12-20T04:28:26;101059.66;;;3.44;93.05
69173;BME280;56280;49.662;8.408;2022-12-20T04:30:52;101046.00;;;3.36;92.55
69173;BME280;56280;49.662;8.408;2022-12-20T04:33:17;101032.16;;;3.53;91.98
69173;BME280;56280;49.662;8.408;2022-12-20T04:35:42;101031.84;;;3.61;92.20
69173;BME280;56280;49.662;8.408;2022-12-20T04:38:08;101023.38;;;3.54;91.14
69173;BME280;56280;49.662;8.408;2022-12-20T04:40:33;101050.69;;;3.71;91.32
69173;BME280;56280;49.662;8.408;2022-12-20T04:42:58;101017.03;;;3.79;90.92
69173;BME280;56280;49.662;8.408;2022-12-20T04:45:23;101027.41;;;3.82;90.57
69173;BME280;56280;49.662;8.408;2022-12-20T04:47:49;101035.53;;;3.96;90.16
69173;BME280;56280;49.662;8.408;2022-12-20T04:50:14;101015.53;;;3.73;90.71
69173;BME280;56280;49.662;8.408;2022-12-20T04:52:39;101008.56;;;3.72;90.22
69173;BME280;56280;49.662;8.408;2022-12-20T04:55:23;101039.47;;;3.86;90.16
69173;BME280;56280;49.662;8.408;2022-12-20T04:57:48;101031.78;;;3.81;90.24
69173;BME280;56280;49.662;8.408;2022-12-20T05:00:14;101048.03;;;3.91;90.23
69173;BME280;56280;49.662;8.408;2022-12-20T05:02:40;101039.91;;;3.77;90.76
69173;BME280;56280;49.662;8.408;2022-12-20T05:05:05;101047.00;;;4.14;89.97
69173;BME280;56280;49.662;8.408;2022-12-20T05:07:31;101020.88;;;3.91;89.96
69173;BME280;56280;49.662;8.408;2022-12-20T05:09:56;101039.59;;;4.04;89.79
69173;BME280;56280;49.662;8.408;2022-12-20T05:12:22;101025.75;;;4.00;90.14
69173;BME280;56280;49.662;8.408;2022-12-20T05:14:47;101038.09;;;4.17;89.56
69173;BME280;56280;49.662;8.408;2022-12-20T05:17:12;100995.09;;;3.99;89.44
69173;BME280;56280;49.662;8.408;2022-12-20T05:19:37;101049.94;;;4.46;88.40
69173;BME280;56280;49.662;8.408;2022-12-20T05:22:03;101010.31;;;3.92;88.88
69173;BME280;56280;49.662;8.408;2022-12-20T05:24:47;101013.72;;;3.94;89.76
69173;BME280;56280;49.662;8.408;2022-12-20T05:27:30;100999.50;;;3.98;89.82
69173;BME280;56280;49.662;8.408;2022-12-20T05:29:56;101032.63;;;4.22;89.29
69173;BME280;56280;49.662;8.408;2022-12-20T05:32:21;101029.59;;;4.31;89.57
69173;BME280;56280;49.662;8.408;2022-12-20T05:34:46;101012.63;;;4.19;89.23
69173;BME280;56280;49.662;8.408;2022-12-20T05:37:12;101027.16;;;4.26;88.79
69173;BME280;56280;49.662;8.408;2022-12-20T05:39:37;101032.44;;;4.26;89.98
69173;BME280;56280;49.662;8.408;2022-12-20T05:42:03;101031.25;;;4.33;89.32
69173;BME280;56280;49.662;8.408;2022-12-20T05:44:28;101016.88;;;4.41;88.30
69173;BME280;56280;49.662;8.408;2022-12-20T05:46:53;101023.03;;;4.59;88.35
69173;BME280;56280;49.662;8.408;2022-12-20T05:49:19;100972.06;;;4.23;88.32
69173;BME280;56280;49.662;8.408;2022-12-20T05:51:44;101002.72;;;4.43;88.10
69173;BME280;56280;49.662;8.408;2022-12-20T05:54:09;100933.09;;;3.95;88.79
69173;BME280;56280;49.662;8.408;2022-12-20T05:56:35;100994.50;;;4.32;89.10
69173;BME280;56280;49.662;8.408;2022-12-20T05:59:00;101006.69;;;4.52;88.71
69173;BME280;56280;49.662;8.408;2022-12-20T06:01:26;101015.00;;;4.43;89.07
69173;BME280;56280;49.662;8.408;2022-12-20T06:03:51;101021.63;;;4.70;88.38
69173;BME280;56280;49.662;8.408;2022-12-20T06:06:17;101021.06;;;4.45;88.97
69173;BME280;56280;49.662;8.408;2022-12-20T06:08:42;100994.56;;;4.30;89.12
69173;BME280;56280;49.662;8.408;2022-12-20T06:11:08;101006.88;;;4.66;89.23
69173;BME280;56280;49.662;8.408;2022-12-20T06:13:33;100992.63;;;4.53;88.69
69173;BME280;56280;49.662;8.408;2022-12-20T06:15:59;100986.25;;;4.40;88.92
69173;BME280;56280;49.662;8.408;2022-12-20T06:18:27;100988.06;;;4.56;88.68
69173;BME280;56280;49.662;8.408;2022-12-20T06:20:52;101004.53;;;4.60;89.19
69173;BME280;56280;49.662;8.408;2022-12-20T06:23:18;100967.56;;;4.08;89.92
69173;BME280;56280;49.662;8.408;2022-12-20T06:25:44;100994.19;;;4.19;91.55
69173;BME280;56280;49.662;8.408;2022-12-20T06:28:10;100977.56;;;3.99;92.45
69173;BME280;56280;49.662;8.408;2022-12-20T06:30:35;100972.56;;;4.31;91.85
69173;BME280;56280;49.662;8.408;2022-12-20T06:33:01;100913.72;;;4.15;91.14
69173;BME280;56280;49.662;8.408;2022-12-20T06:35:27;100942.16;;;4.45;90.39
69173;BME280;56280;49.662;8.408;2022-12-20T06:37:52;100951.53;;;4.31;90.16
69173;BME280;56280;49.662;8.408;2022-12-20T06:40:17;100932.63;;;4.23;90.09
69173;BME280;56280;49.662;8.408;2022-12-20T06:42:43;100976.19;;;4.48;90.16
69173;BME280;56280;49.662;8.408;2022-12-20T06:45:08;100977.19;;;4.45;90.57
69173;BME280;56280;49.662;8.408;2022-12-20T06:47:34;100985.34;;;4.58;90.19
69173;BME280;56280;49.662;8.408;2022-12-20T06:50:00;100956.97;;;4.28;89.98
69173;BME280;56280;49.662;8.408;2022-12-20T06:52:25;100969.44;;;4.42;90.48
69173;BME280;56280;49.662;8.408;2022-12-20T06:54:50;100967.00;;;4.56;89.74
69173;BME280;56280;49.662;8.408;2022-12-20T06:57:15;100994.22;;;4.55;90.01
69173;BME280;56280;49.662;8.408;2022-12-20T06:59:41;100987.84;;;4.23;91.43
69173;BME280;56280;49.662;8.408;2022-12-20T07:02:08;101016.63;;;4.64;91.61
69173;BME280;56280;49.662;8.408;2022-12-20T07:04:34;100976.81;;;4.53;89.82
69173;BME280;56280;49.662;8.408;2022-12-20T07:06:59;100967.06;;;4.55;89.47
69173;BME280;56280;49.662;8.408;2022-12-20T07:09:24;100972.97;;;4.60;89.57
69173;BME280;56280;49.662;8.408;2022-12-20T07:11:50;101005.34;;;4.80;89.45
69173;BME280;56280;49.662;8.408;2022-12-20T07:14:16;100993.31;;;4.93;89.07
69173;BME280;56280;49.662;8.408;2022-12-20T07:16:41;100890.69;;;4.20;89.23
69173;BME280;56280;49.662;8.408;2022-12-20T07:19:11;100974.88;;;4.75;89.71
69173;BME280;56280;49.662;8.408;2022-12-20T07:21:37;100978.31;;;5.13;89.43
69173;BME280;56280;49.662;8.408;2022-12-20T07:24:03;100984.78;;;5.23;88.69
69173;BME280;56280;49.662;8.408;2022-12-20T07:26:28;100991.31;;;5.16;88.52
69173;BME280;56280;49.662;8.408;2022-12-20T07:28:53;100945.84;;;4.77;89.14
69173;BME280;56280;49.662;8.408;2022-12-20T07:31:19;100972.41;;;5.07;89.40
69173;BME280;56280;49.662;8.408;2022-12-20T07:33:44;100973.72;;;5.34;88.97
69173;BME280;56280;49.662;8.408;2022-12-20T07:36:11;100972.88;;;5.33;87.98
69173;BME280;56280;49.662;8.408;2022-12-20T07:38:37;100975.00;;;5.42;88.01
69173;BME280;56280;49.662;8.408;2022-12-20T07:41:11;100991.13;;;5.54;88.07
69173;BME280;56280;49.662;8.408;2022-12-20T07:43:37;100965.59;;;5.38;87.97
69173;BME280;56280;49.662;8.408;2022-12-20T07:46:04;100993.53;;;5.58;87.83
69173;BME280;56280;49.662;8.408;2022-12-20T07:48:29;100974.75;;;4.96;84.12
69173;BME280;56280;49.662;8.408;2022-12-20T07:51:01;100988.53;;;4.65;85.98
69173;BME280;56280;49.662;8.408;2022-12-20T07:53:27;100982.59;;;4.79;86.74
69173;BME280;56280;49.662;8.408;2022-12-20T07:55:54;100966.28;;;4.72;87.41
69173;BME280;56280;49.662;8.408;2022-12-20T07:58:20;100959.84;;;4.78;87.21
69173;BME280;56280;49.662;8.408;2022-12-20T08:00:46;100966.13;;;4.75;86.65
69173;BME280;56280;49.662;8.408;2022-12-20T08:03:21;100953.22;;;4.51;89.02
69173;BME280;56280;49.662;8.408;2022-12-20T08:05:50;100938.91;;;4.57;88.14
69173;BME280;56280;49.662;8.408;2022-12-20T08:08:17;100935.19;;;4.61;88.64
69173;BME280;56280;49.662;8.408;2022-12-20T08:10:43;100924.91;;;4.74;88.65
69173;BME280;56280;49.662;8.408;2022-12-20T08:13:08;100920.03;;;4.66;88.44
69173;BME280;56280;49.662;8.408;2022-12-20T08:15:34;100911.63;;;4.77;88.32
69173;BME280;56280;49.662;8.408;2022-12-20T08:18:01;100953.91;;;5.09;88.14
69173;BME280;56280;49.662;8.408;2022-12-20T08:20:26;100921.53;;;4.89;87.98
69173;BME280;56280;49.662;8.408;2022-12-20T08:22:51;100910.81;;;4.57;85.81
69173;BME280;56280;49.662;8.408;2022-12-20T08:25:17;100945.84;;;4.22;84.80
69173;BME280;56280;49.662;8.408;2022-12-20T08:27:43;100961.31;;;3.31;87.88
69173;BME280;56280;49.662;8.408;2022-12-20T08:30:09;100913.53;;;3.02;91.30
69173;BME280;56280;49.662;8.408;2022-12-20T08:32:35;100963.41;;;3.83;91.01
69173;BME280;56280;49.662;8.408;2022-12-20T08:35:00;100912.69;;;3.81;89.69
69173;BME280;56280;49.662;8.408;2022-12-20T08:37:26;100929.88;;;4.07;89.89
69173;BME280;56280;49.662;8.408;2022-12-20T08:39:51;100940.31;;;4.28;89.26
69173;BME280;56280;49.662;8.408;2022-12-20T08:42:16;100911.38;;;4.28;89.10
69173;BME280;56280;49.662;8.408;2022-12-20T08:44:42;100949.69;;;4.52;89.35
69173;BME280;56280;49.662;8.408;2022-12-20T08:47:08;100912.72;;;4.54;88.67
69173;BME280;56280;49.662;8.408;2022-12-20T08:49:35;100936.00;;;4.81;88.48
69173;BME280;56280;49.662;8.408;2022-12-20T08:52:00;100934.75;;;4.70;88.41
69173;BME280;56280;49.662;8.408;2022-12-20T08:54:26;100908.91;;;4.79;89.04
69173;BME280;56280;49.662;8.408;2022-12-20T08:56:51;100913.06;;;5.00;88.03
69173;BME280;56280;49.662;8.408;2022-12-20T08:59:17;100913.88;;;4.85;87.94
69173;BME280;56280;49.662;8.408;2022-12-20T09:01:42;100914.03;;;4.99;88.90
69173;BME280;56280;49.662;8.408;2022-12-20T09:04:09;100906.88;;;5.01;87.98
69173;BME280;56280;49.662;8.408;2022-12-20T09:06:35;100922.47;;;5.06;88.07
69173;BME280;56280;49.662;8.408;2022-12-20T09:09:00;100898.38;;;4.96;88.50
69173;BME280;56280;49.662;8.408;2022-12-20T09:11:26;100898.59;;;5.09;88.01
69173;BME280;56280;49.662;8.408;2022-12-20T09:13:56;100901.59;;;5.19;87.56
69173;BME280;56280;49.662;8.408;2022-12-20T09:16:24;100905.00;;;5.21;88.77
69173;BME280;56280;49.662;8.408;2022-12-20T09:18:52;100914.69;;;5.38;87.68
69173;BME280;56280;49.662;8.408;2022-12-20T09:21:18;100944.03;;;5.47;87.17
69173;BME280;56280;49.662;8.408;2022-12-20T09:23:44;100865.00;;;4.79;87.47
69173;BME280;56280;49.662;8.408;2022-12-20T09:26:11;100927.75;;;5.39;88.03
69173;BME280;56280;49.662;8.408;2022-12-20T09:28:37;100941.69;;;5.59;87.99
69173;BME280;56280;49.662;8.408;2022-12-20T09:31:06;100904.81;;;5.41;87.70
69173;BME280;56280;49.662;8.408;2022-12-20T09:33:33;100908.34;;;5.58;88.26
69173;BME280;56280;49.662;8.408;2022-12-20T09:35:59;100924.59;;;5.66;87.49
69173;BME280;56280;49.662;8.408;2022-12-20T09:38:25;100905.72;;;5.74;87.33
69173;BME280;56280;49.662;8.408;2022-12-20T09:40:54;100912.31;;;5.98;87.19
69173;BME280;56280;49.662;8.408;2022-12-20T09:43:21;100901.47;;;5.87;86.79
69173;BME280;56280;49.662;8.408;2022-12-20T09:45:51;100885.06;;;5.66;86.99
69173;BME280;56280;49.662;8.408;2022-12-20T09:48:25;100879.75;;;5.50;87.93
69173;BME280;56280;49.662;8.408;2022-12-20T09:59:32;100900.44;;;6.23;87.03
69173;BME280;56280;49.662;8.408;2022-12-20T10:01:59;100898.34;;;6.44;86.39
69173;BME280;56280;49.662;8.408;2022-12-20T10:04:29;100901.81;;;6.61;86.48
69173;BME280;56280;49.662;8.408;2022-12-20T10:12:20;100895.47;;;6.49;82.05
69173;BME280;56280;49.662;8.408;2022-12-20T10:14:59;100875.97;;;6.19;82.74
69173;BME280;56280;49.662;8.408;2022-12-20T10:17:45;100863.66;;;5.39;82.57
69173;BME280;56280;49.662;8.408;2022-12-20T10:25:49;100901.31;;;5.07;87.70
69173;BME280;56280;49.662;8.408;2022-12-20T10:28:16;100863.19;;;5.15;87.83
69173;BME280;56280;49.662;8.408;2022-12-20T10:30:43;100887.44;;;5.71;87.35
69173;BME280;56280;49.662;8.408;2022-12-20T10:33:22;100886.16;;;5.94;86.57
69173;BME280;56280;49.662;8.408;2022-12-20T10:35:49;100893.03;;;5.98;86.75
69173;BME280;56280;49.662;8.408;2022-12-20T10:38:15;100865.16;;;5.92;87.15
69173;BME280;56280;49.662;8.408;2022-12-20T10:43:21;100881.84;;;6.25;86.20
69173;BME280;56280;49.662;8.408;2022-12-20T10:46:00;100875.63;;;6.26;87.09
69173;BME280;56280;49.662;8.408;2022-12-20T10:48:37;100874.53;;;6.46;87.19
69173;BME280;56280;49.662;8.408;2022-12-20T10:51:11;100870.75;;;6.50;86.46
69173;BME280;56280;49.662;8.408;2022-12-20T10:53:59;100859.53;;;6.46;86.61
69173;BME280;56280;49.662;8.408;2022-12-20T10:56:31;100846.03;;;6.67;86.34
69173;BME280;56280;49.662;8.408;2022-12-20T10:58:57;100834.22;;;6.72;85.53
69173;BME280;56280;49.662;8.408;2022-12-20T11:01:34;100839.25;;;6.91;85.68
69173;BME280;56280;49.662;8.408;2022-12-20T11:04:03;100835.13;;;7.16;84.31
69173;BME280;56280;49.662;8.408;2022-12-20T11:06:41;100806.56;;;6.49;83.43
69173;BME280;56280;49.662;8.408;2022-12-20T11:09:27;100844.44;;;5.86;83.67
69173;BME280;56280;49.662;8.408;2022-12-20T11:12:11;100815.31;;;6.03;84.59
69173;BME280;56280;49.662;8.408;2022-12-20T11:14:38;100838.84;;;6.38;83.54
69173;BME280;56280;49.662;8.408;2022-12-20T11:30:20;100815.41;;;6.93;82.35
69173;BME280;56280;49.662;8.408;2022-12-20T11:33:18;100808.13;;;6.97;81.94
69173;BME280;56280;49.662;8.408;2022-12-20T11:36:03;100809.09;;;7.10;82.96
69173;BME280;56280;49.662;8.408;2022-12-20T11:38:34;100802.66;;;7.14;82.08
69173;BME280;56280;49.662;8.408;2022-12-20T11:41:09;100804.56;;;7.12;81.73
69173;BME280;56280;49.662;8.408;2022-12-20T11:46:35;100803.50;;;7.15;83.63
69173;BME280;56280;49.662;8.408;2022-12-20T11:51:45;100782.94;;;7.34;83.84
69173;BME280;56280;49.662;8.408;2022-12-20T11:54:20;100781.31;;;7.46;83.68
69173;BME280;56280;49.662;8.408;2022-12-20T11:56:47;100766.91;;;7.64;83.46
69173;BME280;56280;49.662;8.408;2022-12-20T11:59:21;100767.06;;;7.76;83.31
69173;BME280;56280;49.662;8.408;2022-12-20T12:01:55;100741.25;;;7.66;83.17
69173;BME280;56280;49.662;8.408;2022-12-20T12:04:25;100745.84;;;7.90;82.99
69173;BME280;56280;49.662;8.408;2022-12-20T12:06:57;100736.63;;;7.83;82.68
69173;BME280;56280;49.662;8.408;2022-12-20T12:09:38;100754.41;;;7.81;81.77
69173;BME280;56280;49.662;8.408;2022-12-20T12:14:58;100740.94;;;8.11;82.22
69173;BME280;56280;49.662;8.408;2022-12-20T12:17:34;100724.59;;;7.92;81.21
69173;BME280;56280;49.662;8.408;2022-12-20T12:22:45;100750.94;;;8.33;81.74
69173;BME280;56280;49.662;8.408;2022-12-20T12:25:16;100740.56;;;8.30;80.86
69173;BME280;56280;49.662;8.408;2022-12-20T12:27:42;100745.59;;;8.08;80.27
69173;BME280;56280;49.662;8.408;2022-12-20T12:30:12;100754.41;;;7.81;81.67
69173;BME280;56280;49.662;8.408;2022-12-20T12:32:43;100740.97;;;7.84;82.99
69173;BME280;56280;49.662;8.408;2022-12-20T12:35:35;100735.22;;;8.04;82.44
69173;BME280;56280;49.662;8.408;2022-12-20T12:38:03;100732.91;;;8.26;82.14
69173;BME280;56280;49.662;8.408;2022-12-20T12:40:45;100719.38;;;8.30;80.95
69173;BME280;56280;49.662;8.408;2022-12-20T12:43:52;100716.72;;;8.30;80.56
69173;BME280;56280;49.662;8.408;2022-12-20T12:46:33;100700.00;;;8.30;81.30
69173;BME280;56280;49.662;8.408;2022-12-20T12:49:04;100671.72;;;8.17;80.70
69173;BME280;56280;49.662;8.408;2022-12-20T12:51:35;100701.47;;;8.34;79.64
69173;BME280;56280;49.662;8.408;2022-12-20T12:54:21;100687.50;;;8.19;80.45
69173;BME280;56280;49.662;8.408;2022-12-20T12:56:48;100697.00;;;8.49;81.29
69173;BME280;56280;49.662;8.408;2022-12-20T12:59:41;100688.53;;;8.56;79.89
69173;BME280;56280;49.662;8.408;2022-12-20T13:10:53;100666.03;;;8.75;78.38
69173;BME280;56280;49.662;8.408;2022-12-20T13:13:00;100665.00;;;8.52;78.95
69173;BME280;56280;49.662;8.408;2022-12-20T13:17:56;100661.69;;;8.61;81.21
69173;BME280;56280;49.662;8.408;2022-12-20T13:20:33;100639.34;;;8.65;80.52
69173;BME280;56280;49.662;8.408;2022-12-20T13:25:33;100668.31;;;9.05;80.27
69173;BME280;56280;49.662;8.408;2022-12-20T13:30:41;100666.75;;;9.27;79.26
69173;BME280;56280;49.662;8.408;2022-12-20T13:35:57;100662.13;;;9.18;78.29
69173;BME280;56280;49.662;8.408;2022-12-20T13:40:56;100670.16;;;9.29;78.68
69173;BME280;56280;49.662;8.408;2022-12-20T13:43:26;100667.84;;;9.24;78.43
69173;BME280;56280;49.662;8.408;2022-12-20T13:46:13;100638.38;;;9.16;78.50
69173;BME280;56280;49.662;8.408;2022-12-20T13:51:23;100684.13;;;9.31;79.18
69173;BME280;56280;49.662;8.408;2022-12-20T13:56:34;100669.31;;;9.16;76.99
69173;BME280;56280;49.662;8.408;2022-12-20T13:59:15;100682.28;;;9.44;78.74
69173;BME280;56280;49.662;8.408;2022-12-20T14:01:52;100655.59;;;9.59;79.07
69173;BME280;56280;49.662;8.408;2022-12-20T14:04:18;100658.47;;;9.56;77.94
69173;BME280;56280;49.662;8.408;2022-12-20T14:06:53;100654.81;;;9.45;77.73
69173;BME280;56280;49.662;8.408;2022-12-20T14:09:32;100664.97;;;9.52;78.54
69173;BME280;56280;49.662;8.408;2022-12-20T14:12:16;100653.44;;;9.64;77.42
69173;BME280;56280;49.662;8.408;2022-12-20T14:14:44;100670.50;;;9.48;77.68
69173;BME280;56280;49.662;8.408;2022-12-20T14:17:31;100666.19;;;9.35;78.87
69173;BME280;56280;49.662;8.408;2022-12-20T14:20:13;100666.59;;;9.41;79.06
69173;BME280;56280;49.662;8.408;2022-12-20T14:22:45;100639.06;;;9.31;77.99
69173;BME280;56280;49.662;8.408;2022-12-20T14:25:17;100647.28;;;9.39;78.46
69173;BME280;56280;49.662;8.408;2022-12-20T14:27:46;100639.56;;;9.12;74.22
69173;BME280;56280;49.662;8.408;2022-12-20T14:30:30;100640.06;;;8.16;75.77
69173;BME280;56280;49.662;8.408;2022-12-20T14:32:57;100644.50;;;7.49;79.66
69173;BME280;56280;49.662;8.408;2022-12-20T14:35:22;100649.53;;;7.12;81.57
69173;BME280;56280;49.662;8.408;2022-12-20T14:37:59;100642.44;;;7.13;82.03
69173;BME280;56280;49.662;8.408;2022-12-20T14:40:27;100643.66;;;7.49;82.87
69173;BME280;56280;49.662;8.408;2022-12-20T14:42:52;100628.28;;;7.69;81.63
69173;BME280;56280;49.662;8.408;2022-12-20T14:45:24;100645.34;;;7.90;80.93
69173;BME280;56280;49.662;8.408;2022-12-20T14:48:01;100624.72;;;7.82;81.13
69173;BME280;56280;49.662;8.408;2022-12-20T14:50:37;100629.78;;;8.11;81.74